Time;durP1;ratioP1;P1;durP2;ratioP2;P2;SDS_P1;SDS_P2;PMS_P1;PMS_P2;Temp;Humidity;BMP_temperature;BMP_pressure;BME280_temperature;BME280_humidity;BME280_pressure;Samples;Min_cycle;Max_cycle;Signal;HPM_P1;HPM_P2
2023/07/12 00:00:28;;;;;;;21.92;15.80;;;24.60;99.90;;;;;;5032739;28;20479;-78
2023/07/12 00:02:57;;;;;;;19.90;12.77;;;24.60;99.90;;;;;;5032872;28;20389;-77
2023/07/12 00:09:18;;;;;;;21.10;14.25;;;24.50;99.90;;;;;;4970243;28;20404;-75
2023/07/12 00:11:43;;;;;;;20.42;13.45;;;24.40;99.90;;;;;;4974375;28;20511;-75
2023/07/12 00:14:09;;;;;;;19.20;13.45;;;24.40;99.90;;;;;;4974053;28;20030;-78
2023/07/12 00:16:38;;;;;;;18.90;13.95;;;24.30;99.90;;;;;;4974053;28;20550;-78
2023/07/12 00:19:05;;;;;;;21.35;13.52;;;24.30;99.90;;;;;;4973511;28;20050;-78
2023/07/12 00:21:31;;;;;;;20.05;13.13;;;24.30;99.90;;;;;;4973852;28;20031;-78
2023/07/12 00:23:59;;;;;;;16.58;12.68;;;24.30;99.90;;;;;;4973507;28;20042;-78
2023/07/12 00:26:30;;;;;;;18.80;13.25;;;24.30;99.90;;;;;;4973571;28;20050;-75
2023/07/12 00:28:58;;;;;;;22.42;14.40;;;24.30;99.90;;;;;;4973805;28;20023;-75
2023/07/12 00:31:24;;;;;;;19.13;13.48;;;24.30;99.90;;;;;;4973780;28;20109;-76
2023/07/12 00:33:51;;;;;;;19.88;14.27;;;24.30;99.90;;;;;;4972349;28;20034;-78
2023/07/12 00:36:22;;;;;;;22.42;13.77;;;24.30;99.90;;;;;;4973631;28;20113;-78
2023/07/12 00:38:49;;;;;;;19.13;12.77;;;24.20;99.90;;;;;;4972199;28;20047;-77
2023/07/12 00:41:18;;;;;;;19.48;15.15;;;24.20;99.90;;;;;;4972402;28;20089;-78
2023/07/12 00:43:50;;;;;;;21.30;15.48;;;24.00;99.90;;;;;;4973266;28;20130;-77
2023/07/12 00:46:32;;;;;;;28.27;15.05;;;24.00;99.90;;;;;;4973462;28;20019;-78
2023/07/12 00:48:58;;;;;;;24.20;16.02;;;23.90;99.90;;;;;;4973460;28;20085;-76
2023/07/12 00:51:27;;;;;;;22.10;15.35;;;23.90;99.90;;;;;;4971779;28;20019;-75
2023/07/12 00:53:57;;;;;;;21.23;14.57;;;23.90;99.90;;;;;;4973305;28;20113;-75
2023/07/12 00:56:24;;;;;;;22.27;14.70;;;23.80;99.90;;;;;;4955810;28;20030;-75
2023/07/12 00:58:57;;;;;;;23.17;14.25;;;23.70;99.90;;;;;;4973391;28;20452;-75
2023/07/12 01:01:26;;;;;;;23.50;15.52;;;23.60;99.90;;;;;;4955920;28;20082;-78
2023/07/12 01:03:55;;;;;;;23.25;14.15;;;23.50;99.90;;;;;;4956126;28;20042;-78
2023/07/12 01:06:22;;;;;;;25.27;16.20;;;23.40;99.90;;;;;;4955645;28;20066;-77
2023/07/12 01:08:48;;;;;;;23.50;15.57;;;23.30;99.90;;;;;;4972894;28;20063;-77
2023/07/12 01:11:16;;;;;;;24.17;15.52;;;23.30;99.90;;;;;;4972239;28;20428;-78
2023/07/12 01:13:45;;;;;;;20.65;13.80;;;23.10;99.90;;;;;;4955462;28;20035;-78
2023/07/12 01:16:14;;;;;;;21.67;14.35;;;23.20;99.90;;;;;;4973163;28;20045;-78
2023/07/12 01:18:40;;;;;;;19.13;13.65;;;23.30;99.90;;;;;;4972844;28;20062;-77
2023/07/12 01:21:08;;;;;;;18.52;13.18;;;23.30;99.90;;;;;;4972884;28;20062;-77
2023/07/12 01:23:36;;;;;;;22.80;13.10;;;23.30;99.90;;;;;;4971984;28;20493;-77
2023/07/12 01:26:16;;;;;;;22.85;14.10;;;23.10;99.90;;;;;;4971830;28;20082;-77
2023/07/12 01:28:45;;;;;;;18.50;13.73;;;23.20;99.90;;;;;;4961142;28;20118;-78
2023/07/12 01:31:11;;;;;;;21.73;14.10;;;23.20;99.90;;;;;;4957961;28;20070;-78
2023/07/12 01:33:37;;;;;;;20.33;13.77;;;23.30;99.90;;;;;;4971141;28;20078;-78
2023/07/12 01:36:03;;;;;;;18.55;14.30;;;23.30;99.90;;;;;;4976660;28;20066;-78
2023/07/12 01:38:29;;;;;;;19.17;13.70;;;23.10;99.90;;;;;;4959383;28;20035;-78
2023/07/12 01:40:55;;;;;;;22.52;14.80;;;23.10;99.90;;;;;;4975716;28;20034;-77
2023/07/12 01:43:22;;;;;;;20.77;13.45;;;23.20;99.90;;;;;;4959009;28;20440;-78
2023/07/12 01:45:48;;;;;;;19.05;12.85;;;23.30;99.90;;;;;;4976864;28;20090;-78
2023/07/12 01:48:13;;;;;;;20.15;14.55;;;23.20;99.90;;;;;;4975348;28;20101;-78
2023/07/12 01:50:41;;;;;;;22.70;14.20;;;23.20;99.90;;;;;;4976572;28;20400;-77
2023/07/12 01:53:08;;;;;;;22.23;14.35;;;23.10;99.90;;;;;;4959224;28;20023;-77
2023/07/12 01:55:34;;;;;;;22.13;14.45;;;23.10;99.90;;;;;;4975414;28;20031;-77
2023/07/12 01:58:00;;;;;;;22.88;15.02;;;23.10;99.90;;;;;;4976466;28;20034;-76
2023/07/12 02:00:25;;;;;;;20.10;14.55;;;23.10;99.90;;;;;;4959128;28;20038;-77
2023/07/12 02:02:51;;;;;;;20.65;14.10;;;23.10;99.90;;;;;;4975176;28;20033;-76
2023/07/12 02:05:18;;;;;;;18.73;13.70;;;23.00;99.90;;;;;;4974895;28;20035;-77
2023/07/12 02:07:44;;;;;;;20.67;14.07;;;23.00;99.90;;;;;;4973844;28;20053;-76
2023/07/12 02:10:13;;;;;;;32.53;17.00;;;23.00;99.90;;;;;;4973941;28;20034;-77
2023/07/12 02:12:39;;;;;;;20.67;15.93;;;23.00;99.90;;;;;;4972957;28;20506;-77
2023/07/12 02:15:06;;;;;;;24.08;15.95;;;23.00;99.90;;;;;;4973714;28;20406;-76
2023/07/12 02:17:32;;;;;;;23.88;17.17;;;23.00;99.90;;;;;;4974557;28;20086;-76
2023/07/12 02:19:58;;;;;;;25.77;16.38;;;23.00;99.90;;;;;;4973260;28;20035;-77
2023/07/12 02:22:24;;;;;;;27.45;16.30;;;23.00;99.90;;;;;;4972872;28;20029;-77
2023/07/12 02:24:50;;;;;;;27.67;16.55;;;22.90;99.90;;;;;;4973322;28;20502;-76
2023/07/12 02:27:18;;;;;;;28.20;16.02;;;22.90;99.90;;;;;;4973444;28;20023;-77
2023/07/12 02:29:44;;;;;;;22.42;15.25;;;23.00;99.90;;;;;;4973959;28;20027;-77
2023/07/12 02:32:09;;;;;;;21.00;14.52;;;23.00;99.90;;;;;;4973342;28;20079;-77
2023/07/12 02:34:35;;;;;;;18.33;14.30;;;23.10;99.90;;;;;;4973082;28;20023;-77
2023/07/12 02:37:02;;;;;;;23.48;14.25;;;23.10;99.90;;;;;;4955998;28;20027;-76
2023/07/12 02:39:28;;;;;;;18.67;12.98;;;23.10;99.90;;;;;;4952828;28;20192;-77
2023/07/12 02:41:54;;;;;;;22.85;13.80;;;23.10;99.90;;;;;;4972733;28;20027;-76
2023/07/12 02:44:21;;;;;;;23.27;13.27;;;23.00;99.90;;;;;;4973120;28;20122;-77
2023/07/12 02:46:47;;;;;;;19.13;12.52;;;23.00;99.90;;;;;;4973441;28;20073;-77
2023/07/12 02:49:14;;;;;;;24.10;13.60;;;23.10;99.90;;;;;;4973474;28;20031;-78
2023/07/12 02:51:39;;;;;;;19.67;13.63;;;23.10;99.90;;;;;;4973334;28;20059;-77
2023/07/12 02:54:05;;;;;;;19.63;13.13;;;23.10;99.90;;;;;;4972028;28;20070;-77
2023/07/12 02:56:31;;;;;;;21.05;13.30;;;23.10;99.90;;;;;;4973665;28;20094;-78
2023/07/12 02:58:57;;;;;;;22.73;13.55;;;23.10;99.90;;;;;;4973108;28;20043;-76
2023/07/12 03:01:23;;;;;;;22.92;13.32;;;23.10;99.90;;;;;;4955932;28;20023;-76
2023/07/12 03:03:48;;;;;;;20.33;13.43;;;23.10;99.90;;;;;;4973417;28;20070;-77
2023/07/12 03:06:14;;;;;;;21.88;13.30;;;23.10;99.90;;;;;;4973040;28;20031;-77
2023/07/12 03:08:40;;;;;;;22.63;12.60;;;23.10;99.90;;;;;;4972210;28;20046;-77
2023/07/12 03:11:07;;;;;;;17.35;12.73;;;23.10;99.90;;;;;;4973394;28;20034;-77
2023/07/12 03:13:33;;;;;;;22.35;13.45;;;23.20;99.90;;;;;;4965204;28;20030;-76
2023/07/12 03:16:05;;;;;;;21.50;12.95;;;23.20;99.90;;;;;;4969492;28;20394;-76
2023/07/12 03:18:31;;;;;;;19.77;13.05;;;23.20;99.90;;;;;;4972632;28;20055;-77
2023/07/12 03:21:01;;;;;;;20.17;12.65;;;23.30;99.90;;;;;;4972523;28;20031;-77
2023/07/12 03:23:31;;;;;;;24.35;13.02;;;23.30;99.90;;;;;;4972892;28;20106;-77
2023/07/12 03:25:58;;;;;;;19.02;12.65;;;23.30;99.90;;;;;;4972588;28;20102;-77
2023/07/12 03:28:24;;;;;;;22.15;11.88;;;23.40;99.90;;;;;;4972703;28;20376;-78
2023/07/12 03:31:02;;;;;;;18.80;11.68;;;23.40;99.90;;;;;;4972234;28;20029;-77
2023/07/12 03:33:29;;;;;;;19.65;12.93;;;23.50;99.90;;;;;;4972400;28;20041;-77
2023/07/12 03:35:55;;;;;;;20.73;13.43;;;23.40;99.90;;;;;;4955005;28;20019;-77
2023/07/12 03:38:25;;;;;;;19.73;11.85;;;23.40;99.90;;;;;;4972140;28;20093;-77
2023/07/12 03:40:55;;;;;;;19.52;13.25;;;23.40;99.90;;;;;;4972440;28;20034;-77
2023/07/12 03:43:24;;;;;;;18.30;12.65;;;23.60;99.90;;;;;;4972061;28;20035;-77
2023/07/12 03:45:50;;;;;;;20.73;13.02;;;23.60;99.90;;;;;;4972143;28;20101;-77
2023/07/12 03:48:16;;;;;;;19.58;13.60;;;23.70;99.90;;;;;;4954836;28;20468;-77
2023/07/12 03:50:42;;;;;;;18.77;13.43;;;23.80;99.90;;;;;;4972166;28;20074;-76
2023/07/12 03:53:08;;;;;;;20.08;12.50;;;23.80;99.90;;;;;;4971798;28;20027;-77
2023/07/12 03:55:39;;;;;;;20.80;12.63;;;23.80;99.90;;;;;;4971815;28;20018;-77
2023/07/12 03:58:05;;;;;;;20.88;14.93;;;23.90;99.90;;;;;;4955989;28;20105;-76
2023/07/12 04:00:31;;;;;;;20.77;13.43;;;24.00;99.90;;;;;;4970747;28;20506;-77
2023/07/12 04:02:57;;;;;;;27.30;14.07;;;24.00;99.90;;;;;;4964823;28;20113;-77
2023/07/12 04:05:23;;;;;;;21.65;14.65;;;24.10;99.90;;;;;;4957686;28;20030;-77
2023/07/12 04:07:51;;;;;;;27.38;15.15;;;24.10;99.90;;;;;;4974190;28;20046;-78
2023/07/12 04:10:17;;;;;;;21.42;14.15;;;24.20;99.90;;;;;;4993272;28;20031;-77
2023/07/12 04:12:43;;;;;;;21.92;15.73;;;24.30;99.90;;;;;;4993615;28;20088;-77
2023/07/12 04:15:09;;;;;;;21.33;15.02;;;24.30;99.90;;;;;;4993335;28;20088;-76
2023/07/12 04:17:35;;;;;;;28.65;14.80;;;24.00;99.90;;;;;;4993198;28;20483;-77
2023/07/12 04:20:01;;;;;;;25.08;15.23;;;24.00;99.90;;;;;;4992846;28;20030;-77
2023/07/12 04:22:27;;;;;;;23.65;15.25;;;24.30;99.90;;;;;;4992106;28;20022;-77
2023/07/12 04:24:53;;;;;;;24.35;14.90;;;24.40;99.90;;;;;;4993126;28;20447;-77
2023/07/12 04:27:19;;;;;;;24.80;16.05;;;24.70;99.90;;;;;;4993149;28;20052;-77
2023/07/12 04:29:45;;;;;;;22.58;15.60;;;24.80;99.90;;;;;;4993233;28;20460;-77
2023/07/12 04:32:11;;;;;;;24.50;15.90;;;25.00;99.90;;;;;;4993056;28;20018;-77
2023/07/12 04:34:38;;;;;;;21.60;14.98;;;25.10;99.90;;;;;;4993300;28;20464;-77
2023/07/12 04:37:04;;;;;;;20.73;15.02;;;25.50;99.90;;;;;;4993278;28;20030;-78
2023/07/12 04:39:30;;;;;;;20.15;14.27;;;25.80;99.90;;;;;;4992813;28;20361;-76
2023/07/12 04:41:56;;;;;;;22.05;14.82;;;25.90;99.90;;;;;;4991854;28;20037;-77
2023/07/12 04:44:21;;;;;;;32.47;14.32;;;26.00;99.90;;;;;;4992454;28;20031;-77
2023/07/12 04:46:47;;;;;;;32.13;14.35;;;26.60;99.90;;;;;;4975577;28;20030;-77
2023/07/12 04:49:13;;;;;;;24.73;14.88;;;27.10;99.90;;;;;;4992671;28;20026;-78
2023/07/12 04:51:39;;;;;;;22.90;13.48;;;27.60;99.90;;;;;;4993004;28;20083;-77
2023/07/12 04:54:05;;;;;;;25.15;14.77;;;28.10;99.90;;;;;;4992409;28;20061;-78
2023/07/12 04:56:31;;;;;;;22.70;14.20;;;28.80;99.90;;;;;;4986052;28;20030;-78
2023/07/12 04:58:57;;;;;;;23.77;13.52;;;29.30;99.90;;;;;;4983689;28;20375;-78
2023/07/12 05:01:23;;;;;;;18.65;12.90;;;;;;;;;;4973830;28;20045;-77
2023/07/12 05:03:49;;;;;;;22.48;13.00;;;29.70;98.90;;;;;;4987483;28;20434;-78
2023/07/12 05:06:14;;;;;;;23.15;13.68;;;29.40;98.10;;;;;;4992610;28;20109;-79
2023/07/12 05:08:41;;;;;;;21.17;13.05;;;29.20;99.30;;;;;;4991305;28;20404;-79
2023/07/12 05:11:07;;;;;;;20.25;12.88;;;29.00;99.30;;;;;;4973312;28;20384;-78
2023/07/12 05:13:34;;;;;;;20.42;12.02;;;29.10;98.70;;;;;;4982105;28;20026;-78
2023/07/12 05:16:01;;;;;;;23.40;12.45;;;29.10;98.10;;;;;;4991384;28;20022;-78
2023/07/12 05:18:27;;;;;;;20.40;12.98;;;28.90;99.40;;;;;;4989315;28;20023;-78
2023/07/12 05:20:53;;;;;;;18.17;11.38;;;28.90;99.10;;;;;;4969361;28;20034;-79
2023/07/12 05:23:20;;;;;;;18.90;12.25;;;29.10;98.10;;;;;;4988760;28;20443;-78
2023/07/12 05:25:50;;;;;;;23.05;13.32;;;29.20;98.90;;;;;;4978142;28;20034;-79
2023/07/12 05:28:16;;;;;;;25.75;13.57;;;29.20;99.00;;;;;;4985395;28;20495;-79
2023/07/12 05:30:41;;;;;;;21.10;14.10;;;29.10;98.90;;;;;;4981533;28;20026;-79
2023/07/12 05:33:08;;;;;;;23.35;13.73;;;;;;;;;;4989534;28;20476;-78
2023/07/12 05:35:33;;;;;;;18.15;12.90;;;29.50;99.40;;;;;;4986876;28;20023;-78
2023/07/12 05:37:59;;;;;;;22.92;13.48;;;29.60;98.90;;;;;;4988873;28;20514;-77
2023/07/12 05:40:25;;;;;;;18.95;13.45;;;29.80;98.30;;;;;;4973726;28;20469;-78
2023/07/12 05:42:52;;;;;;;23.25;14.95;;;30.00;97.90;;;;;;4972352;28;20472;-77
2023/07/12 05:45:17;;;;;;;21.88;13.90;;;29.80;98.80;;;;;;4972891;28;20022;-79
2023/07/12 05:47:46;;;;;;;24.08;13.57;;;29.90;98.50;;;;;;4973596;28;20369;-77
2023/07/12 05:50:14;;;;;;;23.77;13.02;;;30.00;98.00;;;;;;4973297;28;20491;-77
2023/07/12 05:52:41;;;;;;;25.50;13.07;;;30.30;98.60;;;;;;4972943;28;20049;-80
2023/07/12 05:55:09;;;;;;;19.13;12.25;;;30.40;97.90;;;;;;4972766;28;20026;-80
2023/07/12 05:57:34;;;;;;;18.83;12.20;;;30.60;97.70;;;;;;4974126;28;20023;-79
2023/07/12 06:00:01;;;;;;;18.35;12.48;;;30.40;97.20;;;;;;4972689;28;20392;-78
2023/07/12 06:02:27;;;;;;;35.30;29.58;;;30.60;97.60;;;;;;4991245;28;20443;-78
2023/07/12 06:04:53;;;;;;;26.83;16.25;;;30.80;97.00;;;;;;4991908;28;20081;-79
2023/07/12 06:07:19;;;;;;;23.80;15.40;;;30.80;97.00;;;;;;4992164;28;20426;-77
2023/07/12 06:09:45;;;;;;;28.83;15.35;;;30.80;96.30;;;;;;4960783;28;20093;-78
2023/07/12 06:12:11;;;;;;;25.60;17.33;;;30.90;97.00;;;;;;4972805;28;20788;-80
2023/07/12 06:14:37;;;;;;;24.17;18.38;;;31.00;96.70;;;;;;4971048;28;20038;-78
2023/07/12 06:17:05;;;;;;;35.47;18.77;;;30.90;96.30;;;;;;4992046;28;20019;-77
2023/07/12 06:19:31;;;;;;;21.27;14.82;;;30.90;96.90;;;;;;4995309;28;20026;-78
2023/07/12 06:21:57;;;;;;;22.58;13.63;;;31.00;96.40;;;;;;4964438;28;20463;-78
2023/07/12 06:24:22;;;;;;;19.98;13.80;;;31.00;95.30;;;;;;4976396;28;20067;-77
2023/07/12 06:26:48;;;;;;;19.70;12.98;;;30.90;96.20;;;;;;4975833;28;20027;-79
2023/07/12 06:29:15;;;;;;;24.55;14.32;;;;;;;;;;4976256;28;20085;-78
2023/07/12 06:31:44;;;;;;;20.70;13.80;;;31.30;95.10;;;;;;4975847;28;20480;-81
2023/07/12 06:34:10;;;;;;;20.75;12.90;;;31.10;95.70;;;;;;4970562;28;20065;-78
2023/07/12 06:36:36;;;;;;;19.23;12.80;;;31.50;94.70;;;;;;4994367;28;20523;-80
2023/07/12 06:39:02;;;;;;;18.67;12.80;;;;;;;;;;4995141;28;20070;-77
2023/07/12 06:41:28;;;;;;;17.20;11.93;;;;;;;;;;4992951;28;20027;-77
2023/07/12 06:43:54;;;;;;;20.17;11.80;;;;;;;;;;4984467;28;20045;-80
2023/07/12 06:46:20;;;;;;;17.02;11.48;;;31.90;94.20;;;;;;4975829;28;20031;-76
2023/07/12 06:48:46;;;;;;;13.90;10.13;;;32.10;93.70;;;;;;4982665;28;20030;-76
2023/07/12 06:51:12;;;;;;;13.95;9.82;;;32.30;93.10;;;;;;4993716;28;20054;-75
2023/07/12 06:53:38;;;;;;;16.00;8.68;;;32.00;92.40;;;;;;4981275;28;20022;-78
2023/07/12 06:56:04;;;;;;;17.90;8.57;;;32.20;91.70;;;;;;4984311;28;20046;-77
2023/07/12 06:58:30;;;;;;;16.45;8.80;;;32.20;91.50;;;;;;4985495;28;20022;-75
2023/07/12 07:00:55;;;;;;;16.88;7.90;;;32.30;91.40;;;;;;4994791;28;20052;-77
2023/07/12 07:03:21;;;;;;;15.63;7.63;;;32.40;91.70;;;;;;4994630;28;20053;-77
2023/07/12 07:05:48;;;;;;;15.25;7.63;;;32.70;90.60;;;;;;4994530;28;20029;-75
2023/07/12 07:08:15;;;;;;;12.98;7.97;;;32.60;91.00;;;;;;4994713;28;20039;-76
2023/07/12 07:10:43;;;;;;;13.73;7.57;;;32.90;92.10;;;;;;4976432;28;20121;-75
2023/07/12 07:13:10;;;;;;;14.48;8.02;;;32.90;91.20;;;;;;4994874;28;20085;-76
2023/07/12 07:15:36;;;;;;;16.10;6.65;;;32.70;90.90;;;;;;4994204;28;20030;-77
2023/07/12 07:18:02;;;;;;;16.35;7.28;;;33.00;90.90;;;;;;4979784;28;20030;-79
2023/07/12 07:20:29;;;;;;;11.30;6.72;;;32.80;90.30;;;;;;4994039;28;20034;-76
2023/07/12 07:22:54;;;;;;;11.20;6.30;;;33.00;90.40;;;;;;4981590;28;20469;-76
2023/07/12 07:25:21;;;;;;;14.48;6.85;;;33.00;90.70;;;;;;4993746;28;20022;-77
2023/07/12 07:27:47;;;;;;;10.07;6.15;;;33.50;91.50;;;;;;4982534;28;20027;-77
2023/07/12 07:30:13;;;;;;;9.50;5.68;;;33.60;90.70;;;;;;4974148;28;20389;-77
2023/07/12 07:32:39;;;;;;;9.50;5.55;;;33.80;88.00;;;;;;4973590;28;20031;-76
2023/07/12 07:35:05;;;;;;;11.75;6.15;;;33.80;90.20;;;;;;4974525;28;20181;-76
2023/07/12 07:37:35;;;;;;;9.40;5.50;;;34.00;90.60;;;;;;4978460;28;20383;-77
2023/07/12 07:40:00;;;;;;;9.00;5.55;;;34.20;86.60;;;;;;4974608;28;20473;-77
2023/07/12 07:42:26;;;;;;;9.27;5.50;;;34.20;88.60;;;;;;4974584;28;20035;-79
2023/07/12 07:44:52;;;;;;;10.95;5.28;;;34.20;91.60;;;;;;4978730;28;20042;-76
2023/07/12 07:47:18;;;;;;;9.35;5.15;;;34.30;90.50;;;;;;4989944;28;20022;-76
2023/07/12 07:49:44;;;;;;;8.10;5.22;;;34.20;90.20;;;;;;4985723;28;20440;-77
2023/07/12 07:52:09;;;;;;;11.25;5.13;;;34.30;90.30;;;;;;4976632;28;20400;-78
2023/07/12 07:54:35;;;;;;;9.00;5.45;;;34.40;90.90;;;;;;4974314;28;20384;-76
2023/07/12 07:57:01;;;;;;;7.07;4.50;;;34.60;91.30;;;;;;4971287;28;20027;-76
2023/07/12 07:59:27;;;;;;;8.93;5.03;;;34.50;90.00;;;;;;4972941;28;20480;-74
2023/07/12 08:01:53;;;;;;;8.80;4.93;;;34.60;89.80;;;;;;4969843;28;20026;-75
2023/07/12 08:04:19;;;;;;;13.23;5.28;;;34.70;90.20;;;;;;4947703;28;20038;-76
2023/07/12 08:06:47;;;;;;;10.57;5.25;;;34.70;89.50;;;;;;4967774;28;20491;-77
2023/07/12 08:09:13;;;;;;;10.50;4.70;;;34.50;88.60;;;;;;4974492;28;20054;-76
2023/07/12 08:11:39;;;;;;;11.85;5.65;;;34.70;90.40;;;;;;4970463;28;20504;-76
2023/07/12 08:14:04;;;;;;;10.77;5.07;;;35.10;88.30;;;;;;4973039;28;20034;-76
2023/07/12 08:16:35;;;;;;;9.48;5.05;;;35.10;90.50;;;;;;4969095;28;20388;-77
2023/07/12 08:19:03;;;;;;;7.40;5.18;;;34.80;88.50;;;;;;4973464;28;20090;-75
2023/07/12 08:21:30;;;;;;;8.30;5.25;;;35.00;88.70;;;;;;4974097;28;20023;-76
2023/07/12 08:24:02;;;;;;;11.07;5.80;;;35.10;87.30;;;;;;4974907;28;20449;-76
2023/07/12 08:26:28;;;;;;;10.90;5.28;;;35.50;90.30;;;;;;4974471;28;20424;-75
2023/07/12 08:28:54;;;;;;;9.63;5.25;;;35.40;89.60;;;;;;4973967;28;20027;-75
2023/07/12 08:31:20;;;;;;;12.18;5.93;;;35.20;88.30;;;;;;4974678;28;20053;-76
2023/07/12 08:33:49;;;;;;;12.00;5.65;;;35.60;90.40;;;;;;4973347;28;20038;-75
2023/07/12 08:36:16;;;;;;;14.73;5.18;;;35.70;89.20;;;;;;4974634;28;20089;-78
2023/07/12 08:38:43;;;;;;;9.93;4.95;;;35.50;90.00;;;;;;4974359;28;20031;-76
2023/07/12 08:41:15;;;;;;;10.10;4.95;;;35.00;88.00;;;;;;4974392;28;20047;-77
2023/07/12 08:43:42;;;;;;;10.00;5.75;;;35.40;90.20;;;;;;4974201;28;20504;-76
2023/07/12 08:46:24;;;;;;;11.27;5.28;;;35.40;87.80;;;;;;4973231;28;20081;-77
2023/07/12 08:48:58;;;;;;;9.38;5.05;;;34.90;89.70;;;;;;4974646;28;20031;-77
2023/07/12 08:51:29;;;;;;;12.05;5.55;;;34.70;90.50;;;;;;4974404;28;20027;-78
2023/07/12 08:53:55;;;;;;;11.43;5.77;;;35.00;90.30;;;;;;4974373;28;20045;-76
2023/07/12 08:56:22;;;;;;;10.23;5.32;;;35.00;90.60;;;;;;4974216;28;20102;-77
2023/07/12 08:58:53;;;;;;;13.38;5.72;;;35.10;90.60;;;;;;4973594;28;20038;-77
2023/07/12 09:01:30;;;;;;;11.98;5.60;;;34.70;90.80;;;;;;4974333;28;20540;-77
2023/07/12 09:03:58;;;;;;;13.57;5.90;;;34.60;90.70;;;;;;4974429;28;20041;-76
2023/07/12 09:06:24;;;;;;;15.50;6.80;;;34.90;91.50;;;;;;4974084;28;20082;-76
2023/07/12 09:08:53;;;;;;;15.00;6.13;;;35.20;91.20;;;;;;4974296;28;20078;-75
2023/07/12 09:11:27;;;;;;;12.63;5.80;;;35.20;91.40;;;;;;4973749;28;20031;-76
2023/07/12 09:13:56;;;;;;;16.23;6.63;;;35.30;92.60;;;;;;4972799;28;20400;-76
2023/07/12 09:16:27;;;;;;;16.15;6.20;;;35.40;91.90;;;;;;4973289;28;20035;-74
2023/07/12 09:19:11;;;;;;;17.98;6.68;;;35.40;92.60;;;;;;4974190;28;20038;-75
2023/07/12 09:21:38;;;;;;;13.48;5.95;;;35.40;92.40;;;;;;4974089;28;20034;-76
2023/07/12 09:24:12;;;;;;;16.45;5.95;;;35.30;92.40;;;;;;4974191;28;20551;-74
2023/07/12 09:26:38;;;;;;;12.68;6.22;;;35.40;93.10;;;;;;4974043;28;20034;-76
2023/07/12 09:29:13;;;;;;;11.48;6.28;;;35.30;92.70;;;;;;4973365;28;20031;-76
2023/07/12 09:31:40;;;;;;;13.57;6.55;;;35.40;92.00;;;;;;4973901;28;20427;-76
2023/07/12 09:34:23;;;;;;;11.25;5.68;;;35.30;91.50;;;;;;4973699;28;20122;-75
2023/07/12 09:36:57;;;;;;;12.88;6.05;;;35.10;91.60;;;;;;4974248;28;20496;-76
2023/07/12 09:39:25;;;;;;;17.80;5.95;;;34.80;92.40;;;;;;4974074;28;20037;-73
2023/07/12 09:41:58;;;;;;;9.48;5.63;;;35.00;92.10;;;;;;4956698;28;20067;-74
2023/07/12 09:44:25;;;;;;;10.95;4.97;;;35.00;91.20;;;;;;4973293;28;20113;-75
2023/07/12 09:47:00;;;;;;;12.07;5.82;;;34.80;91.70;;;;;;4973758;28;20018;-76
2023/07/12 09:49:33;;;;;;;15.90;6.40;;;34.70;92.00;;;;;;4973844;28;20027;-76
2023/07/12 09:52:26;;;;;;;9.63;5.00;;;34.70;92.40;;;;;;4978236;28;20026;-75
2023/07/12 09:55:09;;;;;;;12.15;5.80;;;34.80;91.40;;;;;;4966936;28;20043;-75
2023/07/12 09:57:56;;;;;;;14.23;5.68;;;34.80;92.30;;;;;;4977368;28;20027;-76
2023/07/12 10:01:02;;;;;;;18.35;6.05;;;34.70;91.10;;;;;;4976552;28;20046;-75
2023/07/12 10:03:47;;;;;;;16.25;5.88;;;34.80;91.00;;;;;;4902096;29;20088;-74
2023/07/12 10:06:33;;;;;;;18.55;6.05;;;35.00;92.10;;;;;;4917507;29;20426;-75
2023/07/12 10:09:12;;;;;;;13.80;6.72;;;35.00;91.30;;;;;;4898618;29;20056;-74
2023/07/12 10:11:57;;;;;;;10.75;5.55;;;34.70;92.10;;;;;;4895896;29;20565;-75
2023/07/12 10:14:31;;;;;;;12.98;5.10;;;34.70;91.70;;;;;;4897608;29;20040;-77
2023/07/12 10:16:57;;;;;;;9.32;5.65;;;34.70;91.40;;;;;;4883072;29;20032;-77
2023/07/12 10:19:32;;;;;;;12.93;4.63;;;34.70;91.30;;;;;;4898750;29;20055;-75
2023/07/12 10:22:01;;;;;;;9.18;4.97;;;34.70;91.40;;;;;;4898645;29;20560;-76
2023/07/12 10:24:36;;;;;;;14.65;5.45;;;34.70;92.10;;;;;;4898448;29;20127;-74
2023/07/12 10:27:15;;;;;;;16.38;5.65;;;34.50;91.20;;;;;;4897800;29;20488;-75
2023/07/12 10:30:00;;;;;;;13.98;5.15;;;34.50;91.20;;;;;;4885556;29;20033;-76
2023/07/12 10:32:52;;;;;;;10.70;5.18;;;34.60;91.70;;;;;;4915983;29;20071;-76
2023/07/12 10:35:17;;;;;;;9.98;5.28;;;34.70;92.00;;;;;;4916924;29;20564;-76
2023/07/12 10:38:01;;;;;;;11.75;5.57;;;34.80;91.60;;;;;;4955404;28;20034;-75
2023/07/12 10:40:35;;;;;;;11.38;5.55;;;35.20;91.70;;;;;;4960567;28;20043;-77
2023/07/12 10:43:12;;;;;;;12.63;5.82;;;35.80;92.00;;;;;;4957670;28;20035;-77
2023/07/12 10:45:39;;;;;;;10.18;5.60;;;35.90;92.60;;;;;;4956473;28;20393;-77
2023/07/12 10:48:07;;;;;;;10.57;5.60;;;36.10;90.90;;;;;;4957254;29;20070;-75
2023/07/12 10:50:44;;;;;;;13.68;6.07;;;36.10;92.20;;;;;;4924527;28;20492;-76
2023/07/12 10:53:22;;;;;;;10.88;5.00;;;36.20;90.80;;;;;;4957100;28;20475;-77
2023/07/12 10:56:23;;;;;;;10.20;5.70;;;36.00;92.10;;;;;;4956888;28;20031;-76
2023/07/12 10:58:54;;;;;;;9.55;5.00;;;36.00;91.80;;;;;;4956411;28;20023;-76
2023/07/12 11:01:50;;;;;;;22.67;5.97;;;35.90;91.70;;;;;;4956865;28;20488;-76
2023/07/12 11:04:27;;;;;;;11.05;5.85;;;35.80;91.80;;;;;;4956927;28;20452;-76
2023/07/12 11:07:06;;;;;;;7.68;4.70;;;36.20;92.20;;;;;;4959163;28;20034;-79
2023/07/12 11:09:45;;;;;;;14.27;5.53;;;36.40;91.70;;;;;;4976389;28;20035;-77
2023/07/12 11:12:16;;;;;;;11.70;5.43;;;36.30;92.10;;;;;;4958782;28;20384;-77
2023/07/12 11:15:19;;;;;;;14.32;5.97;;;36.20;91.10;;;;;;4975063;28;20038;-76
2023/07/12 11:17:53;;;;;;;12.57;5.80;;;36.40;92.90;;;;;;4973965;28;20389;-79
2023/07/12 11:20:23;;;;;;;18.13;6.35;;;36.50;91.40;;;;;;4975850;28;20108;-77
2023/07/12 11:22:59;;;;;;;14.50;5.32;;;36.40;88.90;;;;;;4975831;28;20056;-77
2023/07/12 11:25:39;;;;;;;12.05;5.38;;;36.40;90.20;;;;;;4975130;28;20030;-78
2023/07/12 11:28:22;;;;;;;11.98;5.50;;;36.10;89.80;;;;;;4963587;28;20093;-78
2023/07/12 11:31:15;;;;;;;8.95;5.22;;;36.30;90.70;;;;;;4972459;28;20039;-78
2023/07/12 11:33:50;;;;;;;15.90;5.60;;;36.40;90.80;;;;;;4975396;28;20039;-78
2023/07/12 11:36:21;;;;;;;13.30;6.25;;;36.70;90.60;;;;;;4975385;28;20101;-78
2023/07/12 11:38:49;;;;;;;10.93;5.80;;;36.80;90.70;;;;;;4975759;28;20061;-79
2023/07/12 11:41:26;;;;;;;11.35;5.75;;;36.90;91.00;;;;;;4957908;28;20121;-78
2023/07/12 11:44:06;;;;;;;11.82;5.90;;;37.00;88.80;;;;;;4973418;28;20035;-78
2023/07/12 11:46:38;;;;;;;11.13;5.50;;;36.90;90.00;;;;;;4973368;28;20023;-76
2023/07/12 11:49:13;;;;;;;8.73;5.32;;;36.80;89.70;;;;;;4977213;28;20031;-76
2023/07/12 11:51:41;;;;;;;11.77;5.65;;;36.60;89.20;;;;;;4992650;28;20154;-77
2023/07/12 11:54:22;;;;;;;10.52;5.68;;;36.80;86.10;;;;;;4975494;28;20035;-76
2023/07/12 11:56:51;;;;;;;12.25;5.53;;;36.90;87.10;;;;;;4974567;28;20101;-76
2023/07/12 11:59:22;;;;;;;9.88;5.32;;;36.50;86.10;;;;;;4975372;28;20026;-78
2023/07/12 12:01:51;;;;;;;9.25;4.95;;;36.80;87.30;;;;;;4974601;28;20081;-77
2023/07/12 12:04:22;;;;;;;16.30;5.28;;;36.80;87.90;;;;;;4975278;28;20042;-77
2023/07/12 12:06:54;;;;;;;8.15;5.10;;;36.70;87.60;;;;;;4973380;28;20050;-77
2023/07/12 12:09:28;;;;;;;14.00;5.90;;;36.70;87.10;;;;;;4975005;28;20476;-77
2023/07/12 12:11:59;;;;;;;10.70;5.65;;;36.80;86.90;;;;;;4964741;28;20034;-77
2023/07/12 12:14:28;;;;;;;8.50;5.18;;;36.80;86.10;;;;;;4974777;28;20130;-76
2023/07/12 12:16:56;;;;;;;8.45;5.28;;;36.80;86.30;;;;;;4973809;28;20102;-78
2023/07/12 12:19:27;;;;;;;15.45;5.97;;;36.80;86.20;;;;;;4972106;28;20546;-77
2023/07/12 12:22:01;;;;;;;10.80;5.57;;;36.60;86.40;;;;;;4960717;28;20022;-77
2023/07/12 12:24:27;;;;;;;15.55;5.28;;;36.60;87.90;;;;;;4956895;28;20097;-77
2023/07/12 12:26:55;;;;;;;10.55;5.30;;;36.80;87.80;;;;;;4971267;28;20480;-77
2023/07/12 12:29:23;;;;;;;10.75;5.45;;;36.80;87.80;;;;;;4974804;28;20110;-78
2023/07/12 12:31:55;;;;;;;12.60;5.90;;;36.80;86.80;;;;;;4974274;28;20045;-77
2023/07/12 12:34:25;;;;;;;11.63;5.82;;;36.70;86.10;;;;;;4971514;28;20087;-75
2023/07/12 12:37:00;;;;;;;14.35;5.63;;;36.70;86.60;;;;;;4974518;28;20044;-78
2023/07/12 12:39:28;;;;;;;12.20;5.25;;;36.70;86.50;;;;;;4974185;28;20485;-75
2023/07/12 12:42:06;;;;;;;13.43;5.60;;;36.70;84.60;;;;;;4973328;28;20385;-77
2023/07/12 12:44:36;;;;;;;11.23;5.53;;;36.40;85.60;;;;;;4974411;28;20026;-77
2023/07/12 12:47:17;;;;;;;12.45;5.63;;;36.40;88.60;;;;;;4970799;28;20037;-77